Time;durP1;ratioP1;P1;durP2;ratioP2;P2;SDS_P1;SDS_P2;PMS_P1;PMS_P2;Temp;Humidity;BMP_temperature;BMP_pressure;BME280_temperature;BME280_humidity;BME280_pressure;Samples;Min_cycle;Max_cycle;Signal;HPM_P1;HPM_P2
2023/01/20 00:01:52;;;;;;;26.13;11.50;;;;;;;4.24;65.57;100049.75;4986752;28;20231;-69
2023/01/20 00:04:33;;;;;;;31.37;12.00;;;;;;;4.16;65.59;100045.09;4986316;28;20212;-70
2023/01/20 00:07:06;;;;;;;54.27;16.20;;;;;;;4.10;65.77;100042.94;4986360;28;20661;-71
2023/01/20 00:09:35;;;;;;;46.60;17.03;;;;;;;4.05;65.78;100043.28;4989228;28;20211;-70
2023/01/20 00:12:03;;;;;;;44.27;16.47;;;;;;;4.02;66.08;100048.78;4987112;28;20222;-70
2023/01/20 00:14:31;;;;;;;48.43;16.33;;;;;;;3.99;65.90;100051.63;4986814;28;20219;-69
2023/01/20 00:17:01;;;;;;;37.83;12.87;;;;;;;3.95;65.88;100060.69;4985827;28;20227;-69
2023/01/20 00:19:29;;;;;;;32.50;13.33;;;;;;;3.90;66.11;100060.19;4986037;28;20208;-69
2023/01/20 00:21:57;;;;;;;23.70;11.23;;;;;;;3.88;66.12;100056.00;4985640;28;20232;-69
2023/01/20 00:24:27;;;;;;;21.30;9.90;;;;;;;3.84;66.42;100060.66;4988705;28;20222;-70
2023/01/20 00:26:55;;;;;;;19.20;10.07;;;;;;;3.83;66.52;100066.03;4985295;28;22088;-70
2023/01/20 00:29:24;;;;;;;20.73;10.10;;;;;;;3.81;66.48;100066.13;4984156;28;20231;-68
2023/01/20 00:31:51;;;;;;;18.10;8.83;;;;;;;3.77;66.72;100077.81;4981205;28;20302;-69
2023/01/20 00:34:19;;;;;;;18.60;9.20;;;;;;;3.79;66.87;100073.28;4982944;28;20771;-71
2023/01/20 00:36:47;;;;;;;19.60;9.77;;;;;;;3.81;66.86;100071.38;4984495;28;20229;-69
2023/01/20 00:39:14;;;;;;;21.60;10.60;;;;;;;3.83;66.93;100074.72;4995359;28;20230;-70
2023/01/20 00:41:44;;;;;;;17.07;9.17;;;;;;;3.84;66.98;100086.06;4988959;28;20267;-70
2023/01/20 00:44:11;;;;;;;19.00;9.13;;;;;;;3.85;67.00;100083.31;4990033;28;20245;-69
2023/01/20 00:46:39;;;;;;;18.10;8.50;;;;;;;3.87;66.94;100084.03;4990894;28;20217;-69
2023/01/20 00:49:07;;;;;;;16.43;8.70;;;;;;;3.98;66.49;100088.47;4990968;28;20842;-69
2023/01/20 00:51:35;;;;;;;17.63;9.07;;;;;;;3.93;66.65;100085.38;4989474;28;20204;-70
2023/01/20 00:54:02;;;;;;;18.13;9.20;;;;;;;3.86;66.91;100100.75;4991864;28;20230;-70
2023/01/20 00:56:30;;;;;;;14.73;8.40;;;;;;;3.83;66.87;100100.97;4991298;28;20857;-68
2023/01/20 00:59:01;;;;;;;17.17;8.63;;;;;;;3.79;67.10;100099.50;4987832;28;20271;-70
2023/01/20 01:01:29;;;;;;;15.70;8.87;;;;;;;3.78;66.98;100111.78;4993120;28;20255;-69
2023/01/20 01:03:56;;;;;;;16.53;9.07;;;;;;;3.77;67.01;100101.44;4991780;28;20753;-68
2023/01/20 01:06:24;;;;;;;20.30;8.97;;;;;;;3.79;67.01;100125.72;4990931;28;20224;-69
2023/01/20 01:08:52;;;;;;;21.40;9.33;;;;;;;3.75;67.40;100114.66;4988092;28;20247;-68
2023/01/20 01:11:20;;;;;;;17.67;9.53;;;;;;;3.75;67.48;100127.75;4987976;28;20211;-68
2023/01/20 01:13:48;;;;;;;17.03;9.07;;;;;;;3.75;67.16;100124.28;4989586;28;20215;-70
2023/01/20 01:16:17;;;;;;;19.20;9.83;;;;;;;3.74;67.27;100122.63;4983963;28;20577;-69
2023/01/20 01:18:45;;;;;;;18.87;9.23;;;;;;;3.72;67.41;100124.50;4988832;28;20211;-69
2023/01/20 01:21:15;;;;;;;22.70;9.60;;;;;;;3.73;67.36;100123.56;4985761;28;20243;-69
2023/01/20 01:23:43;;;;;;;17.67;9.43;;;;;;;3.76;67.35;100129.44;4987794;28;20262;-68
2023/01/20 01:26:12;;;;;;;21.07;9.97;;;;;;;3.84;67.21;100128.03;4989883;28;20223;-69
2023/01/20 01:28:40;;;;;;;17.87;9.43;;;;;;;3.85;66.92;100134.94;4987469;28;21137;-68
2023/01/20 01:31:08;;;;;;;18.37;9.87;;;;;;;3.81;67.15;100149.22;4985971;28;20219;-69
2023/01/20 01:33:37;;;;;;;20.30;9.53;;;;;;;3.76;67.09;100144.34;4984351;28;20931;-69
2023/01/20 01:36:07;;;;;;;18.17;9.03;;;;;;;3.69;67.25;100148.34;4986022;28;20675;-68
2023/01/20 01:38:35;;;;;;;19.33;9.13;;;;;;;3.61;67.35;100148.03;4987618;28;20215;-68
2023/01/20 01:41:03;;;;;;;19.20;8.50;;;;;;;3.58;67.53;100153.53;4986262;28;20303;-69
2023/01/20 01:43:32;;;;;;;16.90;9.40;;;;;;;3.56;67.52;100158.88;4985819;28;20223;-68
2023/01/20 01:46:03;;;;;;;18.57;9.03;;;;;;;3.58;67.32;100156.16;4985226;28;20239;-69
2023/01/20 01:48:35;;;;;;;20.80;9.43;;;;;;;3.55;67.29;100156.38;4986607;28;20206;-69
2023/01/20 01:51:08;;;;;;;19.50;10.40;;;;;;;3.50;67.28;100156.72;4986375;28;20958;-70
2023/01/20 01:53:43;;;;;;;18.53;9.17;;;;;;;3.54;67.37;100157.31;4988409;28;20215;-69
2023/01/20 01:56:12;;;;;;;21.03;9.57;;;;;;;3.55;67.54;100164.22;4987511;28;20226;-70
2023/01/20 01:58:46;;;;;;;16.97;9.27;;;;;;;3.59;67.39;100160.47;4988758;28;20330;-70
2023/01/20 02:01:13;;;;;;;24.73;9.47;;;;;;;3.61;67.29;100156.75;4984652;28;20242;-70
2023/01/20 02:03:48;;;;;;;16.53;8.43;;;;;;;3.57;67.41;100163.19;4990322;28;20625;-70
2023/01/20 02:06:18;;;;;;;20.20;9.60;;;;;;;3.53;67.12;100156.47;4989636;28;20264;-70
2023/01/20 02:08:46;;;;;;;18.47;9.13;;;;;;;3.53;67.08;100161.72;4989500;28;20243;-70
2023/01/20 02:11:14;;;;;;;21.53;9.27;;;;;;;3.48;67.19;100160.38;4989391;28;20215;-68
2023/01/20 02:13:42;;;;;;;20.17;9.97;;;;;;;3.50;66.91;100166.38;4993514;28;20207;-70
2023/01/20 02:16:17;;;;;;;20.87;8.43;;;;;;;3.52;67.12;100167.91;4994699;28;20218;-70
2023/01/20 02:19:00;;;;;;;21.37;10.13;;;;;;;3.56;66.82;100166.75;4984492;28;20218;-71
2023/01/20 02:21:55;;;;;;;14.80;8.20;;;;;;;3.62;66.34;100173.31;4984529;28;20722;-69
2023/01/20 02:25:03;;;;;;;21.87;8.77;;;;;;;3.50;66.68;100177.69;4986623;28;20342;-69
2023/01/20 02:28:07;;;;;;;21.07;8.97;;;;;;;3.40;66.53;100180.13;4982418;28;20767;-69
2023/01/20 02:30:52;;;;;;;16.10;8.50;;;;;;;3.47;66.25;100187.53;4985340;28;20665;-68
2023/01/20 02:33:29;;;;;;;19.47;9.57;;;;;;;3.57;66.18;100183.31;4983665;28;20212;-70
2023/01/20 02:36:02;;;;;;;18.43;9.57;;;;;;;3.61;65.98;100193.47;4987970;28;20215;-70
2023/01/20 02:38:34;;;;;;;19.97;9.87;;;;;;;3.55;66.57;100200.94;4985509;28;20234;-68
2023/01/20 02:41:10;;;;;;;20.23;9.57;;;;;;;3.48;66.97;100194.47;4986420;28;20221;-68
2023/01/20 02:43:46;;;;;;;18.83;8.73;;;;;;;3.45;66.56;100202.53;4987088;28;20210;-67
2023/01/20 02:46:20;;;;;;;17.40;9.63;;;;;;;3.51;66.28;100196.88;4986575;28;20726;-69
2023/01/20 02:48:52;;;;;;;19.87;9.80;;;;;;;3.50;66.56;100203.91;4984101;28;20205;-70
2023/01/20 02:51:25;;;;;;;19.33;8.87;;;;;;;3.45;66.47;100205.16;4984820;28;20574;-68
2023/01/20 02:53:59;;;;;;;22.43;10.27;;;;;;;3.43;66.74;100204.47;4985487;28;20214;-70
2023/01/20 02:56:29;;;;;;;20.93;9.40;;;;;;;3.43;66.76;100217.56;4985456;28;20210;-69
2023/01/20 02:59:00;;;;;;;21.10;9.63;;;;;;;3.41;66.76;100212.41;4986534;28;20233;-68
2023/01/20 03:01:32;;;;;;;20.60;9.33;;;;;;;3.38;66.60;100208.22;4985720;28;20243;-68
2023/01/20 03:04:03;;;;;;;19.87;8.90;;;;;;;3.37;66.67;100214.41;4984560;28;20224;-68
2023/01/20 03:06:36;;;;;;;16.07;9.37;;;;;;;3.38;66.80;100215.25;4983420;28;20206;-67
2023/01/20 03:09:08;;;;;;;19.63;9.20;;;;;;;3.38;66.90;100216.09;4986695;28;20268;-68
2023/01/20 03:11:43;;;;;;;17.43;9.03;;;;;;;3.38;66.74;100223.94;4988733;28;20285;-70
2023/01/20 03:14:21;;;;;;;18.57;8.63;;;;;;;3.40;66.94;100219.44;4985374;28;20206;-69
2023/01/20 03:16:49;;;;;;;20.50;9.43;;;;;;;3.43;66.93;100228.03;4986534;28;20211;-69
2023/01/20 03:19:20;;;;;;;17.97;8.23;;;;;;;3.40;66.81;100227.31;4986798;28;20214;-70
2023/01/20 03:21:48;;;;;;;21.97;9.00;;;;;;;3.45;66.53;100226.13;4983988;28;20785;-68
2023/01/20 03:24:16;;;;;;;15.23;8.07;;;;;;;3.44;66.45;100225.28;4981368;28;20298;-70
2023/01/20 03:26:44;;;;;;;16.23;8.33;;;;;;;3.47;66.63;100234.72;4986484;28;20210;-68
2023/01/20 03:29:14;;;;;;;19.77;8.93;;;;;;;3.46;66.80;100236.50;4985369;28;20666;-69
2023/01/20 03:31:44;;;;;;;19.07;8.80;;;;;;;3.44;66.73;100240.19;4984219;28;20574;-70
2023/01/20 03:34:15;;;;;;;16.23;8.43;;;;;;;3.42;66.82;100248.19;4988809;28;20202;-71
2023/01/20 03:36:45;;;;;;;18.00;9.20;;;;;;;3.48;66.59;100246.91;4985189;28;21481;-68
2023/01/20 03:39:14;;;;;;;14.83;8.30;;;;;;;3.57;66.03;100256.72;4986450;28;20781;-70
2023/01/20 03:41:51;;;;;;;16.50;7.97;;;;;;;3.57;65.84;100257.56;4987069;28;20230;-68
2023/01/20 03:44:26;;;;;;;15.93;8.93;;;;;;;3.54;65.99;100255.16;4984469;28;20210;-68
2023/01/20 03:47:03;;;;;;;19.07;8.53;;;;;;;3.49;66.15;100259.06;4987793;28;20202;-70
2023/01/20 03:49:36;;;;;;;19.07;8.43;;;;;;;3.39;66.51;100257.09;4989152;28;20224;-70
2023/01/20 03:52:12;;;;;;;15.10;8.33;;;;;;;3.30;67.06;100264.75;4987282;28;20210;-70
2023/01/20 03:54:45;;;;;;;15.83;8.30;;;;;;;3.27;67.18;100257.09;4986604;28;20270;-69
2023/01/20 03:57:18;;;;;;;18.67;8.67;;;;;;;3.26;66.75;100263.28;4989777;28;20206;-69
2023/01/20 03:59:49;;;;;;;17.13;8.97;;;;;;;3.25;66.73;100270.31;4992793;28;21625;-71
2023/01/20 04:02:17;;;;;;;19.43;8.60;;;;;;;3.18;66.91;100266.44;4989531;28;20595;-70
2023/01/20 04:04:48;;;;;;;16.50;8.60;;;;;;;3.19;66.85;100273.34;4988230;28;20276;-70
2023/01/20 04:07:21;;;;;;;20.30;9.37;;;;;;;3.18;66.86;100269.03;4987059;28;20247;-67
2023/01/20 04:09:53;;;;;;;19.13;8.60;;;;;;;3.17;66.68;100275.22;4987308;28;20214;-69
2023/01/20 04:12:20;;;;;;;16.03;8.23;;;;;;;3.17;66.57;100277.84;4994350;28;20663;-69
2023/01/20 04:14:48;;;;;;;15.23;7.90;;;;;;;3.17;66.62;100277.84;4991682;28;20213;-70
2023/01/20 04:17:16;;;;;;;16.07;8.17;;;;;;;3.16;66.55;100278.81;4998916;28;20221;-69
2023/01/20 04:19:44;;;;;;;18.57;9.13;;;;;;;3.14;66.47;100274.63;4991351;28;20211;-70
2023/01/20 04:22:17;;;;;;;16.83;8.77;;;;;;;3.10;66.59;100278.38;4987902;28;20237;-70
2023/01/20 04:24:52;;;;;;;17.57;8.73;;;;;;;3.05;66.93;100275.25;4988997;28;20364;-71
2023/01/20 04:27:20;;;;;;;18.40;8.47;;;;;;;3.00;66.97;100288.66;4992290;28;20206;-69
2023/01/20 04:29:48;;;;;;;21.93;7.50;;;;;;;2.96;67.06;100279.34;4990184;28;20245;-71
2023/01/20 04:32:16;;;;;;;14.07;7.77;;;;;;;2.97;67.07;100283.63;4990798;28;20622;-69
2023/01/20 04:34:44;;;;;;;14.87;8.00;;;;;;;3.00;66.96;100293.88;4993014;28;20206;-68
2023/01/20 04:37:12;;;;;;;15.93;8.23;;;;;;;3.06;66.99;100288.25;4991320;28;20208;-69
2023/01/20 04:39:39;;;;;;;14.63;7.77;;;;;;;3.08;66.35;100291.59;4993546;28;20596;-70
2023/01/20 04:42:09;;;;;;;16.20;8.10;;;;;;;2.93;66.73;100292.63;4989834;28;20241;-70
2023/01/20 04:44:37;;;;;;;17.57;8.43;;;;;;;2.79;67.22;100292.72;4994211;28;20272;-71
2023/01/20 04:47:07;;;;;;;17.60;8.23;;;;;;;2.70;67.70;100302.03;4988961;28;20205;-69
2023/01/20 04:49:35;;;;;;;16.43;8.40;;;;;;;2.67;67.70;100310.09;4988368;28;20242;-67
2023/01/20 04:52:02;;;;;;;16.00;7.90;;;;;;;2.70;67.21;100309.06;4992615;28;20214;-68
2023/01/20 04:54:30;;;;;;;18.33;8.20;;;;;;;2.73;67.04;100311.47;4991525;28;20248;-69
2023/01/20 04:56:58;;;;;;;20.50;9.30;;;;;;;2.81;66.50;100314.44;4989535;28;20229;-70
2023/01/20 04:59:27;;;;;;;19.00;8.97;;;;;;;2.96;65.87;100314.22;4989271;28;20620;-70
2023/01/20 05:01:54;;;;;;;17.27;8.60;;;;;;;3.02;65.50;100312.97;4989938;28;20216;-69
2023/01/20 05:04:22;;;;;;;17.73;7.63;;;;;;;3.06;65.41;100319.69;4989731;28;20241;-70
2023/01/20 05:06:50;;;;;;;19.10;8.20;;;;;;;3.07;65.55;100317.91;4992935;28;20748;-68
2023/01/20 05:09:18;;;;;;;18.73;8.60;;;;;;;3.01;65.46;100316.53;4991043;28;20324;-69
2023/01/20 05:11:45;;;;;;;16.60;8.20;;;;;;;3.06;65.49;100327.53;4990723;28;20251;-70
2023/01/20 05:14:14;;;;;;;18.67;9.10;;;;;;;3.09;65.18;100329.94;4991885;28;20214;-70
2023/01/20 05:16:43;;;;;;;14.70;8.30;;;;;;;3.00;65.15;100336.63;4989565;28;20206;-70
2023/01/20 05:19:11;;;;;;;14.67;7.90;;;;;;;2.95;65.29;100332.66;4986251;28;20217;-69
2023/01/20 05:21:41;;;;;;;19.03;8.57;;;;;;;2.93;65.35;100332.75;4989486;28;20318;-68
2023/01/20 05:24:09;;;;;;;21.67;8.37;;;;;;;3.00;65.41;100335.78;4986081;28;20324;-69
2023/01/20 05:26:37;;;;;;;14.93;8.10;;;;;;;3.04;65.41;100345.13;4984740;28;20210;-68
2023/01/20 05:29:05;;;;;;;19.17;9.13;;;;;;;2.95;65.60;100343.97;4989130;28;20664;-68
2023/01/20 05:31:32;;;;;;;17.60;8.47;;;;;;;2.95;65.53;100349.22;4988291;28;20217;-70
2023/01/20 05:34:01;;;;;;;17.57;8.13;;;;;;;3.00;65.43;100346.28;4986862;28;20209;-70
2023/01/20 05:36:29;;;;;;;13.80;7.80;;;;;;;3.09;65.22;100350.06;4987087;28;20237;-68
2023/01/20 05:38:57;;;;;;;15.40;8.20;;;;;;;3.08;64.84;100349.22;4990148;28;20218;-70
2023/01/20 05:41:25;;;;;;;17.63;8.37;;;;;;;2.97;65.50;100347.34;4987627;28;20772;-70
2023/01/20 05:43:53;;;;;;;18.00;8.33;;;;;;;2.88;65.78;100354.97;4986256;28;20237;-68
2023/01/20 05:46:20;;;;;;;15.80;8.93;;;;;;;2.89;65.68;100354.03;4986841;28;20206;-69
2023/01/20 05:48:48;;;;;;;19.23;8.77;;;;;;;2.93;65.37;100363.34;4987321;28;20337;-68
2023/01/20 05:51:17;;;;;;;24.47;8.20;;;;;;;2.86;65.66;100362.09;4987155;28;20221;-70
2023/01/20 05:53:45;;;;;;;16.10;8.37;;;;;;;2.85;65.65;100378.72;4986515;28;20591;-68
2023/01/20 05:56:14;;;;;;;17.33;8.23;;;;;;;2.86;65.50;100375.19;4987618;28;20240;-68
2023/01/20 05:58:42;;;;;;;20.53;8.17;;;;;;;2.91;65.67;100383.56;4987779;28;20233;-70
2023/01/20 06:01:13;;;;;;;16.77;8.43;;;;;;;2.79;65.82;100384.38;4990801;28;20220;-70
2023/01/20 06:03:41;;;;;;;18.43;8.60;;;;;;;2.75;66.30;100382.91;4986217;28;20234;-68
2023/01/20 06:06:13;;;;;;;18.07;8.50;;;;;;;2.82;66.33;100386.78;4988804;28;20578;-69
2023/01/20 06:08:42;;;;;;;15.23;8.50;;;;;;;2.93;66.03;100394.78;4989524;28;20261;-68
2023/01/20 06:11:10;;;;;;;18.50;9.50;;;;;;;2.97;65.58;100396.28;4991804;28;20306;-69
2023/01/20 06:13:38;;;;;;;22.60;11.87;;;;;;;2.84;65.82;100392.75;4993484;28;20208;-69
2023/01/20 06:16:07;;;;;;;30.00;13.30;;;;;;;2.79;66.01;100400.09;4988412;28;20222;-70
2023/01/20 06:18:35;;;;;;;20.53;12.13;;;;;;;2.77;65.88;100402.81;4985354;28;20301;-69
2023/01/20 06:21:03;;;;;;;21.87;10.33;;;;;;;2.78;65.90;100403.66;4987798;28;20205;-69
2023/01/20 06:23:31;;;;;;;21.50;10.53;;;;;;;2.72;66.13;100409.28;4983754;28;20230;-70
2023/01/20 06:26:02;;;;;;;16.00;9.03;;;;;;;2.78;65.86;100407.13;4984175;28;20244;-69
2023/01/20 06:28:31;;;;;;;17.30;8.10;;;;;;;2.86;65.76;100409.22;4986061;28;20240;-71
2023/01/20 06:31:00;;;;;;;19.33;9.07;;;;;;;2.85;65.92;100415.41;4984712;28;20717;-70
2023/01/20 06:33:28;;;;;;;18.73;9.27;;;;;;;2.83;66.01;100414.66;4984096;28;20202;-70
2023/01/20 06:35:56;;;;;;;22.33;10.17;;;;;;;2.80;66.13;100422.72;4984716;28;20224;-70
2023/01/20 06:38:26;;;;;;;18.27;9.47;;;;;;;2.79;66.21;100424.50;4984975;28;20215;-70
2023/01/20 06:40:57;;;;;;;22.13;10.87;;;;;;;2.94;65.69;100425.28;4987978;28;20210;-69
2023/01/20 06:43:28;;;;;;;21.13;9.93;;;;;;;3.05;65.31;100427.19;4981732;28;20237;-71
2023/01/20 06:45:59;;;;;;;23.33;9.13;;;;;;;3.10;65.23;100431.19;4986003;28;20210;-71
2023/01/20 06:48:27;;;;;;;19.43;9.33;;;;;;;3.10;65.20;100428.56;4986713;28;20654;-69
2023/01/20 06:51:00;;;;;;;26.73;11.07;;;;;;;3.03;65.65;100435.16;4988936;28;20205;-67
2023/01/20 06:53:28;;;;;;;23.87;10.13;;;;;;;2.83;66.32;100446.91;4982724;28;20210;-68
2023/01/20 06:55:57;;;;;;;21.43;9.47;;;;;;;2.79;66.90;100437.59;4987281;28;20218;-69
2023/01/20 06:58:27;;;;;;;21.80;8.33;;;;;;;2.76;66.71;100444.81;4985940;28;20230;-69
2023/01/20 07:00:56;;;;;;;20.37;9.57;;;;;;;2.79;66.56;100452.47;4985796;28;20220;-70
2023/01/20 07:03:24;;;;;;;19.57;9.30;;;;;;;2.83;66.74;100453.94;4984362;28;20221;-69
2023/01/20 07:05:57;;;;;;;19.13;9.07;;;;;;;2.81;66.80;100456.69;4985713;28;20218;-69
2023/01/20 07:08:25;;;;;;;18.40;9.70;;;;;;;2.85;66.58;100468.63;4981842;28;20251;-70
2023/01/20 07:10:52;;;;;;;20.97;10.50;;;;;;;2.82;66.79;100466.19;4983536;28;20222;-68
2023/01/20 07:13:20;;;;;;;21.03;9.23;;;;;;;2.85;66.64;100475.63;4982945;28;20286;-68
2023/01/20 07:15:49;;;;;;;18.40;9.17;;;;;;;2.96;66.20;100471.41;4986831;28;20791;-68
2023/01/20 07:18:17;;;;;;;17.30;8.07;;;;;;;3.16;65.68;100479.75;4987017;28;20252;-68
2023/01/20 07:20:45;;;;;;;21.47;8.80;;;;;;;3.18;65.39;100477.84;4989421;28;20224;-68
2023/01/20 07:23:13;;;;;;;18.20;9.67;;;;;;;3.30;65.18;100480.50;4985962;28;20205;-68
2023/01/20 07:25:40;;;;;;;19.10;8.93;;;;;;;3.36;65.04;100487.09;4984746;28;20684;-68
2023/01/20 07:28:08;;;;;;;21.50;10.27;;;;;;;3.39;65.09;100487.75;4983373;28;20224;-69
2023/01/20 07:30:36;;;;;;;20.37;9.10;;;;;;;3.43;65.35;100498.03;4988316;28;20214;-68
2023/01/20 07:33:05;;;;;;;26.60;9.03;;;;;;;3.39;65.19;100492.16;4984731;28;20577;-68
2023/01/20 07:35:33;;;;;;;17.10;9.03;;;;;;;3.38;65.33;100488.69;4984364;28;20233;-69
2023/01/20 07:38:00;;;;;;;22.57;9.60;;;;;;;3.36;65.54;100501.06;4985024;28;20664;-69
2023/01/20 07:40:28;;;;;;;18.90;9.30;;;;;;;3.37;65.66;100500.13;4982883;28;20206;-67
2023/01/20 07:42:56;;;;;;;19.87;9.60;;;;;;;3.31;65.86;100497.06;4985481;28;20218;-67
2023/01/20 07:45:24;;;;;;;20.13;9.63;;;;;;;3.42;65.32;100505.06;4985101;28;20226;-69
2023/01/20 07:47:55;;;;;;;20.50;9.20;;;;;;;3.46;65.37;100500.44;4982749;28;20252;-68
2023/01/20 07:50:24;;;;;;;16.37;9.27;;;;;;;3.58;65.22;100518.00;4984214;28;20727;-68
2023/01/20 07:52:53;;;;;;;21.23;10.17;;;;;;;3.59;65.25;100509.19;4983673;28;20574;-68
2023/01/20 07:55:21;;;;;;;21.33;9.27;;;;;;;3.53;65.45;100505.16;4983692;28;20207;-68
2023/01/20 07:57:51;;;;;;;21.80;9.77;;;;;;;3.60;65.09;100511.72;4975394;28;20274;-68
2023/01/20 08:00:20;;;;;;;19.60;8.90;;;;;;;3.65;64.67;100511.38;4984609;28;20242;-68
2023/01/20 08:02:48;;;;;;;17.13;8.60;;;;;;;3.76;64.34;100522.84;4984401;28;20217;-67
2023/01/20 08:05:15;;;;;;;16.30;8.43;;;;;;;3.88;64.29;100525.56;4982567;28;22148;-66
2023/01/20 08:07:49;;;;;;;21.93;9.70;;;;;;;3.89;64.35;100527.25;4986533;28;20316;-67
2023/01/20 08:10:17;;;;;;;15.70;8.47;;;;;;;3.86;64.18;100530.09;4974242;28;21047;-70
2023/01/20 08:12:45;;;;;;;15.67;9.07;;;;;;;3.91;64.16;100535.84;4974500;28;20222;-66
2023/01/20 08:15:12;;;;;;;18.10;9.37;;;;;;;3.97;63.99;100533.66;4973674;28;20211;-68
2023/01/20 08:17:41;;;;;;;20.27;9.37;;;;;;;4.12;63.74;100540.50;4978212;28;20338;-70
2023/01/20 08:20:10;;;;;;;19.03;8.10;;;;;;;4.05;63.92;100533.13;4978104;28;21333;-70
2023/01/20 08:22:38;;;;;;;16.17;9.03;;;;;;;4.14;63.84;100535.09;4981135;28;20294;-67
2023/01/20 08:25:08;;;;;;;17.10;8.40;;;;;;;4.19;63.52;100542.69;4987013;28;20240;-67
2023/01/20 08:27:36;;;;;;;16.63;8.33;;;;;;;4.15;63.54;100535.00;4994064;28;20211;-69
2023/01/20 08:30:04;;;;;;;24.80;10.57;;;;;;;4.26;63.33;100541.31;4997345;28;20283;-68
2023/01/20 08:32:32;;;;;;;48.73;19.23;;;;;;;4.42;63.10;100545.38;4990210;28;20301;-68
2023/01/20 08:35:00;;;;;;;31.10;13.07;;;;;;;4.48;62.86;100546.75;4990451;28;20772;-66
2023/01/20 08:37:28;;;;;;;25.30;11.20;;;;;;;4.55;62.41;100540.13;4992226;28;20211;-68
2023/01/20 08:39:55;;;;;;;24.33;11.30;;;;;;;4.49;62.24;100540.53;4988178;28;20301;-67
2023/01/20 08:42:25;;;;;;;26.30;9.97;;;;;;;4.39;62.91;100563.16;4991104;28;20208;-69
2023/01/20 08:44:52;;;;;;;21.33;10.10;;;;;;;4.40;63.54;100567.44;4988422;28;20330;-67
2023/01/20 08:47:20;;;;;;;20.57;10.23;;;;;;;4.51;63.39;100559.66;4989167;28;20212;-67
2023/01/20 08:49:48;;;;;;;15.53;9.43;;;;;;;4.56;63.37;100556.72;4986448;28;20223;-68
2023/01/20 08:52:15;;;;;;;23.23;9.03;;;;;;;4.53;63.06;100560.41;4990020;28;20232;-67
2023/01/20 08:54:43;;;;;;;19.80;10.20;;;;;;;4.59;63.09;100567.84;4991112;28;20308;-69
2023/01/20 08:57:11;;;;;;;18.53;9.57;;;;;;;4.66;62.88;100571.72;4992392;28;20217;-68
2023/01/20 08:59:41;;;;;;;23.10;10.23;;;;;;;4.57;63.55;100564.50;4995079;28;20220;-69
2023/01/20 09:02:09;;;;;;;18.93;10.27;;;;;;;4.59;63.40;100565.22;4992606;28;20209;-69
2023/01/20 09:04:37;;;;;;;19.97;10.63;;;;;;;4.59;63.58;100567.84;4994774;28;20618;-69
2023/01/20 09:07:05;;;;;;;18.03;10.03;;;;;;;4.65;63.71;100569.22;4999659;28;20218;-69
2023/01/20 09:09:33;;;;;;;19.40;10.27;;;;;;;4.84;63.34;100578.28;4997276;28;20209;-68
2023/01/20 09:12:17;;;;;;;17.17;9.50;;;;;;;5.16;63.02;100572.53;5080698;27;20357;-68
2023/01/20 09:14:45;;;;;;;20.07;10.17;;;;;;;5.70;61.14;100572.06;5072566;28;20251;-68
2023/01/20 09:17:13;;;;;;;19.67;10.57;;;;;;;6.44;58.53;100582.16;5067861;28;20216;-68
2023/01/20 09:19:41;;;;;;;21.13;10.77;;;;;;;6.73;56.64;100577.25;5075729;28;20210;-68
2023/01/20 09:22:09;;;;;;;20.33;10.60;;;;;;;6.86;56.07;100583.22;5070481;28;20207;-69
2023/01/20 09:24:36;;;;;;;23.90;12.03;;;;;;;6.61;56.70;100591.38;5069737;28;20215;-69
2023/01/20 09:27:04;;;;;;;23.63;13.13;;;;;;;6.66;56.74;100597.16;5070853;28;20360;-69
2023/01/20 09:29:33;;;;;;;22.20;13.27;;;;;;;6.41;56.85;100601.69;5071506;28;20211;-69
2023/01/20 09:32:01;;;;;;;24.63;13.73;;;;;;;6.19;57.90;100599.00;5071374;28;20365;-69
2023/01/20 09:34:31;;;;;;;26.50;12.93;;;;;;;6.03;58.53;100598.50;5071567;28;20240;-68
2023/01/20 09:43:52;;;;;;;21.57;12.67;;;;;;;5.91;59.06;100604.69;5071014;28;20267;-68
2023/01/20 09:45:46;;;;;;;17.33;10.70;;;;;;;11.74;45.70;100605.56;5071425;28;20225;-69
2023/01/20 09:54:14;;;;;;;18.40;11.13;;;;;;;11.31;43.64;100611.59;5073012;28;20208;-69
2023/01/20 09:56:47;;;;;;;16.83;10.47;;;;;;;10.66;44.71;100620.56;5071967;28;20204;-68
2023/01/20 09:59:20;;;;;;;17.50;10.90;;;;;;;9.95;46.02;100615.66;5074604;28;20270;-69
2023/01/20 10:01:53;;;;;;;17.80;10.23;;;;;;;8.72;48.50;100618.75;5073576;28;20711;-69
2023/01/20 10:04:25;;;;;;;18.93;10.70;;;;;;;7.81;51.09;100622.06;5072597;28;20213;-70
2023/01/20 10:06:58;;;;;;;21.93;11.30;;;;;;;7.28;53.05;100628.25;5069064;28;20211;-68
2023/01/20 10:09:32;;;;;;;21.43;11.53;;;;;;;7.03;54.45;100635.47;5071076;28;20305;-67
2023/01/20 10:12:07;;;;;;;18.90;10.93;;;;;;;7.01;54.93;100632.13;5069211;28;20288;-69
2023/01/20 10:14:48;;;;;;;20.63;12.23;;;;;;;7.16;54.99;100625.63;5071311;28;20208;-68
2023/01/20 10:17:23;;;;;;;18.20;11.57;;;;;;;7.27;54.48;100634.47;5075238;28;20209;-68
2023/01/20 10:19:57;;;;;;;20.23;12.00;;;;;;;6.94;55.12;100630.94;5072704;28;20194;-68
2023/01/20 10:22:33;;;;;;;20.93;12.00;;;;;;;6.95;55.49;100623.88;5062402;28;20236;-68
2023/01/20 10:25:07;;;;;;;25.07;12.23;;;;;;;6.93;55.33;100623.13;5054636;28;20213;-68
2023/01/20 10:27:40;;;;;;;20.03;11.07;;;;;;;6.84;55.93;100629.97;5051500;28;20205;-68
2023/01/20 10:30:10;;;;;;;18.23;11.40;;;;;;;6.65;56.41;100627.09;5055098;28;20196;-67
2023/01/20 10:32:45;;;;;;;17.73;10.70;;;;;;;6.32;57.42;100631.38;5056976;28;20275;-68
2023/01/20 10:35:17;;;;;;;22.60;12.23;;;;;;;5.96;58.52;100635.00;5055203;28;20204;-68
2023/01/20 10:37:45;;;;;;;21.10;11.37;;;;;;;5.65;59.48;100633.75;5057888;28;20210;-68
2023/01/20 10:40:28;;;;;;;18.87;10.83;;;;;;;5.45;59.92;100634.38;5053963;28;20203;-68
2023/01/20 10:42:59;;;;;;;21.30;10.27;;;;;;;5.45;60.15;100621.22;5056930;28;20203;-68
2023/01/20 10:45:35;;;;;;;16.37;9.83;;;;;;;5.40;60.16;100631.22;5055461;28;20725;-68
2023/01/20 10:48:18;;;;;;;19.53;10.17;;;;;;;5.26;60.28;100626.97;5054705;28;20204;-67
2023/01/20 10:50:56;;;;;;;17.20;9.93;;;;;;;5.26;60.72;100629.59;5055128;28;21491;-67
2023/01/20 10:53:46;;;;;;;24.97;11.73;;;;;;;5.44;60.62;100619.53;5055295;28;20238;-68
2023/01/20 10:56:33;;;;;;;21.10;10.50;;;;;;;5.65;60.41;100623.22;5056344;28;20219;-69
2023/01/20 10:59:07;;;;;;;23.87;10.53;;;;;;;5.95;60.10;100624.56;5058015;28;20295;-70
2023/01/20 11:01:36;;;;;;;19.97;10.17;;;;;;;6.15;59.04;100626.56;5060256;28;20302;-69
2023/01/20 11:04:05;;;;;;;15.67;9.93;;;;;;;6.26;58.56;100623.91;5062120;28;20234;-70
2023/01/20 11:06:33;;;;;;;21.50;10.93;;;;;;;6.19;58.17;100620.09;5062107;28;21007;-70
2023/01/20 11:09:19;;;;;;;17.23;9.80;;;;;;;6.17;58.78;100624.63;5060834;28;20304;-68
2023/01/20 11:11:48;;;;;;;16.97;9.97;;;;;;;6.30;58.57;100627.16;5060763;28;20266;-70
2023/01/20 11:14:16;;;;;;;16.33;9.87;;;;;;;6.49;58.07;100626.59;5061681;28;20232;-69
2023/01/20 11:16:47;;;;;;;15.37;9.83;;;;;;;6.26;57.92;100631.81;5061328;28;20222;-69
2023/01/20 11:19:16;;;;;;;19.07;9.20;;;;;;;6.39;57.96;100623.84;5061088;28;20218;-69
2023/01/20 11:21:43;;;;;;;16.03;8.93;;;;;;;6.29;58.00;100621.06;5055683;28;20204;-69
2023/01/20 11:24:36;;;;;;;17.07;9.27;;;;;;;7.17;56.27;100627.28;5057578;28;20271;-68
2023/01/20 11:27:06;;;;;;;16.87;8.57;;;;;;;8.27;53.80;100620.84;5048596;28;20204;-70
2023/01/20 11:29:40;;;;;;;15.70;8.83;;;;;;;9.14;50.89;100618.66;5054864;28;20255;-70
2023/01/20 11:32:28;;;;;;;13.00;7.40;;;;;;;11.48;45.13;100629.38;5053617;28;20226;-68
2023/01/20 11:34:58;;;;;;;13.27;7.67;;;;;;;11.82;43.05;100624.25;5059005;28;20648;-68
2023/01/20 11:37:34;;;;;;;13.40;7.07;;;;;;;10.98;44.18;100628.97;5056876;28;20228;-68
2023/01/20 11:40:17;;;;;;;14.63;7.60;;;;;;;10.11;44.97;100633.66;5053315;28;20206;-68
2023/01/20 11:42:47;;;;;;;12.17;6.70;;;;;;;9.99;46.23;100627.66;5055998;28;20209;-69
2023/01/20 11:45:29;;;;;;;13.63;7.10;;;;;;;10.89;44.70;100630.69;5055398;28;20713;-69
2023/01/20 11:48:06;;;;;;;12.73;6.87;;;;;;;10.93;44.24;100624.09;5053029;28;20217;-67
2023/01/20 11:50:38;;;;;;;13.17;7.60;;;;;;;10.39;45.27;100618.69;5055499;28;20201;-69